sensor_id;sensor_type;location;lat;lon;timestamp;pressure;altitude;pressure_sealevel;temperature;humidity
34925;BME280;21130;51.728;8.748;2023-11-22T00:02:06;101418.16;;;1.91;100.00
34925;BME280;21130;51.728;8.748;2023-11-22T00:04:34;101435.22;;;1.85;100.00
34925;BME280;21130;51.728;8.748;2023-11-22T00:07:01;101425.09;;;1.69;100.00
34925;BME280;21130;51.728;8.748;2023-11-22T00:09:27;101429.13;;;1.57;100.00
34925;BME280;21130;51.728;8.748;2023-11-22T00:11:53;101428.03;;;1.41;100.00
34925;BME280;21130;51.728;8.748;2023-11-22T00:14:20;101445.28;;;1.42;100.00
34925;BME280;21130;51.728;8.748;2023-11-22T00:16:46;101454.97;;;1.28;100.00
34925;BME280;21130;51.728;8.748;2023-11-22T00:19:13;101461.19;;;1.20;100.00
34925;BME280;21130;51.728;8.748;2023-11-22T00:21:43;101467.97;;;1.08;100.00
34925;BME280;21130;51.728;8.748;2023-11-22T00:24:10;101472.50;;;0.99;100.00
34925;BME280;21130;51.728;8.748;2023-11-22T00:26:37;101472.97;;;0.95;100.00
34925;BME280;21130;51.728;8.748;2023-11-22T00:29:03;101481.19;;;0.95;100.00
34925;BME280;21130;51.728;8.748;2023-11-22T00:31:30;101494.47;;;0.90;100.00
34925;BME280;21130;51.728;8.748;2023-11-22T00:33:56;101496.28;;;0.81;100.00
34925;BME280;21130;51.728;8.748;2023-11-22T00:36:23;101489.72;;;0.74;100.00
34925;BME280;21130;51.728;8.748;2023-11-22T00:38:51;101497.97;;;0.64;100.00
34925;BME280;21130;51.728;8.748;2023-11-22T00:41:17;101502.81;;;0.52;100.00
34925;BME280;21130;51.728;8.748;2023-11-22T00:43:44;101505.00;;;0.49;100.00
34925;BME280;21130;51.728;8.748;2023-11-22T00:46:11;101506.63;;;0.41;100.00
34925;BME280;21130;51.728;8.748;2023-11-22T00:48:37;101504.91;;;0.40;100.00
34925;BME280;21130;51.728;8.748;2023-11-22T00:51:04;101515.28;;;0.37;100.00
34925;BME280;21130;51.728;8.748;2023-11-22T00:53:34;101526.50;;;0.34;100.00
34925;BME280;21130;51.728;8.748;2023-11-22T00:56:03;101524.09;;;0.31;100.00
34925;BME280;21130;51.728;8.748;2023-11-22T00:58:29;101525.41;;;0.27;100.00
34925;BME280;21130;51.728;8.748;2023-11-22T01:00:56;101528.53;;;0.32;100.00
34925;BME280;21130;51.728;8.748;2023-11-22T01:03:22;101518.72;;;0.11;100.00
34925;BME280;21130;51.728;8.748;2023-11-22T01:05:49;101525.66;;;0.06;100.00
34925;BME280;21130;51.728;8.748;2023-11-22T01:08:15;101532.72;;;-0.02;100.00
34925;BME280;21130;51.728;8.748;2023-11-22T01:10:42;101529.19;;;-0.12;100.00
34925;BME280;21130;51.728;8.748;2023-11-22T01:13:10;101539.69;;;-0.17;100.00
34925;BME280;21130;51.728;8.748;2023-11-22T01:15:36;101541.44;;;-0.26;100.00
34925;BME280;21130;51.728;8.748;2023-11-22T01:18:03;101543.75;;;-0.31;100.00
34925;BME280;21130;51.728;8.748;2023-11-22T01:20:29;101541.19;;;-0.32;100.00
34925;BME280;21130;51.728;8.748;2023-11-22T01:22:56;101553.81;;;-0.41;100.00
34925;BME280;21130;51.728;8.748;2023-11-22T01:25:22;101546.25;;;-0.47;100.00
34925;BME280;21130;51.728;8.748;2023-11-22T01:27:49;101555.72;;;-0.51;100.00
34925;BME280;21130;51.728;8.748;2023-11-22T01:30:17;101556.59;;;-0.60;100.00
34925;BME280;21130;51.728;8.748;2023-11-22T01:32:43;101549.41;;;-0.52;100.00
34925;BME280;21130;51.728;8.748;2023-11-22T01:35:10;101543.69;;;-0.68;100.00
34925;BME280;21130;51.728;8.748;2023-11-22T01:37:36;101551.88;;;-0.78;100.00
34925;BME280;21130;51.728;8.748;2023-11-22T01:40:03;101548.31;;;-0.88;100.00
34925;BME280;21130;51.728;8.748;2023-11-22T01:42:30;101554.91;;;-0.91;100.00
34925;BME280;21130;51.728;8.748;2023-11-22T01:44:56;101554.91;;;-1.00;100.00
34925;BME280;21130;51.728;8.748;2023-11-22T01:47:24;101560.09;;;-1.07;100.00
34925;BME280;21130;51.728;8.748;2023-11-22T01:49:53;101562.38;;;-1.12;100.00
34925;BME280;21130;51.728;8.748;2023-11-22T01:52:19;101564.50;;;-1.16;100.00
34925;BME280;21130;51.728;8.748;2023-11-22T01:54:46;101563.22;;;-1.21;100.00
34925;BME280;21130;51.728;8.748;2023-11-22T01:57:12;101553.59;;;-1.25;100.00
34925;BME280;21130;51.728;8.748;2023-11-22T01:59:41;101544.16;;;-1.31;100.00
34925;BME280;21130;51.728;8.748;2023-11-22T02:02:09;101549.03;;;-1.35;100.00
34925;BME280;21130;51.728;8.748;2023-11-22T02:04:37;101556.19;;;-1.34;100.00
34925;BME280;21130;51.728;8.748;2023-11-22T02:07:04;101548.19;;;-1.35;100.00
34925;BME280;21130;51.728;8.748;2023-11-22T02:09:30;101548.59;;;-1.40;100.00
34925;BME280;21130;51.728;8.748;2023-11-22T02:11:58;101549.00;;;-1.44;100.00
34925;BME280;21130;51.728;8.748;2023-11-22T02:14:25;101538.66;;;-1.50;100.00
34925;BME280;21130;51.728;8.748;2023-11-22T02:16:51;101547.84;;;-1.52;100.00
34925;BME280;21130;51.728;8.748;2023-11-22T02:19:18;101555.59;;;-1.57;100.00
34925;BME280;21130;51.728;8.748;2023-11-22T02:21:46;101573.63;;;-1.56;100.00
34925;BME280;21130;51.728;8.748;2023-11-22T02:24:14;101569.75;;;-1.63;100.00
34925;BME280;21130;51.728;8.748;2023-11-22T02:26:43;101570.31;;;-1.69;100.00
34925;BME280;21130;51.728;8.748;2023-11-22T02:29:11;101574.31;;;-1.73;100.00
34925;BME280;21130;51.728;8.748;2023-11-22T02:31:39;101578.16;;;-1.76;100.00
34925;BME280;21130;51.728;8.748;2023-11-22T02:34:06;101579.03;;;-1.75;100.00
34925;BME280;21130;51.728;8.748;2023-11-22T02:36:32;101584.72;;;-1.78;100.00
34925;BME280;21130;51.728;8.748;2023-11-22T02:38:58;101581.88;;;-1.77;100.00
34925;BME280;21130;51.728;8.748;2023-11-22T02:41:28;101588.88;;;-1.84;100.00
34925;BME280;21130;51.728;8.748;2023-11-22T02:43:55;101586.72;;;-1.90;100.00
34925;BME280;21130;51.728;8.748;2023-11-22T02:46:22;101596.00;;;-1.92;100.00
34925;BME280;21130;51.728;8.748;2023-11-22T02:48:48;101601.00;;;-1.98;100.00
34925;BME280;21130;51.728;8.748;2023-11-22T02:51:15;101601.41;;;-2.02;100.00
34925;BME280;21130;51.728;8.748;2023-11-22T02:53:42;101602.66;;;-2.06;100.00
34925;BME280;21130;51.728;8.748;2023-11-22T02:56:10;101601.22;;;-2.10;100.00
34925;BME280;21130;51.728;8.748;2023-11-22T02:58:38;101604.19;;;-2.13;100.00
34925;BME280;21130;51.728;8.748;2023-11-22T03:01:05;101614.50;;;-2.17;100.00
34925;BME280;21130;51.728;8.748;2023-11-22T03:03:32;101621.81;;;-2.18;100.00
34925;BME280;21130;51.728;8.748;2023-11-22T03:05:59;101628.66;;;-2.23;100.00
34925;BME280;21130;51.728;8.748;2023-11-22T03:08:25;101623.59;;;-2.28;100.00
34925;BME280;21130;51.728;8.748;2023-11-22T03:11:10;101629.44;;;-2.32;100.00
34925;BME280;21130;51.728;8.748;2023-11-22T03:13:36;101634.03;;;-2.33;100.00
34925;BME280;21130;51.728;8.748;2023-11-22T03:16:05;101634.16;;;-2.34;100.00
34925;BME280;21130;51.728;8.748;2023-11-22T03:18:31;101639.00;;;-2.38;100.00
34925;BME280;21130;51.728;8.748;2023-11-22T03:20:58;101651.69;;;-2.39;100.00
34925;BME280;21130;51.728;8.748;2023-11-22T03:23:26;101652.25;;;-2.45;100.00
34925;BME280;21130;51.728;8.748;2023-11-22T03:25:53;101652.53;;;-2.48;100.00
34925;BME280;21130;51.728;8.748;2023-11-22T03:28:19;101655.75;;;-2.54;100.00
34925;BME280;21130;51.728;8.748;2023-11-22T03:31:07;101648.13;;;-2.60;100.00
34925;BME280;21130;51.728;8.748;2023-11-22T03:33:51;101652.25;;;-2.66;100.00
34925;BME280;21130;51.728;8.748;2023-11-22T03:36:36;101651.34;;;-2.66;100.00
34925;BME280;21130;51.728;8.748;2023-11-22T03:39:22;101648.78;;;-2.68;100.00
34925;BME280;21130;51.728;8.748;2023-11-22T03:41:50;101653.22;;;-2.67;100.00
34925;BME280;21130;51.728;8.748;2023-11-22T03:44:16;101658.34;;;-2.73;100.00
34925;BME280;21130;51.728;8.748;2023-11-22T03:46:45;101653.13;;;-2.76;100.00
34925;BME280;21130;51.728;8.748;2023-11-22T03:49:11;101649.94;;;-2.82;100.00
34925;BME280;21130;51.728;8.748;2023-11-22T03:51:42;101653.94;;;-2.86;100.00
34925;BME280;21130;51.728;8.748;2023-11-22T03:54:08;101660.47;;;-2.88;100.00
34925;BME280;21130;51.728;8.748;2023-11-22T03:56:38;101662.84;;;-2.95;100.00
34925;BME280;21130;51.728;8.748;2023-11-22T03:59:04;101666.56;;;-2.96;100.00
34925;BME280;21130;51.728;8.748;2023-11-22T04:01:31;101675.91;;;-2.89;100.00
34925;BME280;21130;51.728;8.748;2023-11-22T04:03:59;101668.38;;;-2.85;100.00
34925;BME280;21130;51.728;8.748;2023-11-22T04:06:25;101677.63;;;-2.88;100.00
34925;BME280;21130;51.728;8.748;2023-11-22T04:08:53;101685.63;;;-2.86;100.00
34925;BME280;21130;51.728;8.748;2023-11-22T04:11:19;101687.72;;;-2.78;100.00
34925;BME280;21130;51.728;8.748;2023-11-22T04:13:46;101695.38;;;-2.84;100.00
34925;BME280;21130;51.728;8.748;2023-11-22T04:16:13;101697.88;;;-2.92;100.00
34925;BME280;21130;51.728;8.748;2023-11-22T04:18:40;101704.59;;;-2.96;100.00
34925;BME280;21130;51.728;8.748;2023-11-22T04:21:08;101703.59;;;-2.95;100.00
34925;BME280;21130;51.728;8.748;2023-11-22T04:23:34;101707.69;;;-3.00;100.00
34925;BME280;21130;51.728;8.748;2023-11-22T04:26:01;101702.75;;;-3.07;100.00
34925;BME280;21130;51.728;8.748;2023-11-22T04:28:28;101707.56;;;-3.10;100.00
34925;BME280;21130;51.728;8.748;2023-11-22T04:30:56;101714.25;;;-3.14;100.00
34925;BME280;21130;51.728;8.748;2023-11-22T04:33:23;101703.53;;;-3.16;100.00
34925;BME280;21130;51.728;8.748;2023-11-22T04:35:50;101711.66;;;-3.16;100.00
34925;BME280;21130;51.728;8.748;2023-11-22T04:38:18;101709.31;;;-3.20;100.00
34925;BME280;21130;51.728;8.748;2023-11-22T04:40:45;101708.69;;;-3.24;100.00
34925;BME280;21130;51.728;8.748;2023-11-22T04:43:11;101712.28;;;-3.23;100.00
34925;BME280;21130;51.728;8.748;2023-11-22T04:45:38;101708.84;;;-3.26;100.00
34925;BME280;21130;51.728;8.748;2023-11-22T04:48:06;101712.66;;;-3.28;100.00
34925;BME280;21130;51.728;8.748;2023-11-22T04:50:33;101716.34;;;-3.29;100.00
34925;BME280;21130;51.728;8.748;2023-11-22T04:52:59;101714.91;;;-3.33;100.00
34925;BME280;21130;51.728;8.748;2023-11-22T04:55:28;101714.16;;;-3.35;100.00
34925;BME280;21130;51.728;8.748;2023-11-22T04:57:54;101723.91;;;-3.33;100.00
34925;BME280;21130;51.728;8.748;2023-11-22T05:00:21;101716.59;;;-3.32;100.00
34925;BME280;21130;51.728;8.748;2023-11-22T05:02:48;101723.63;;;-3.30;100.00
34925;BME280;21130;51.728;8.748;2023-11-22T05:05:14;101726.09;;;-3.27;100.00
34925;BME280;21130;51.728;8.748;2023-11-22T05:07:41;101714.13;;;-3.24;100.00
34925;BME280;21130;51.728;8.748;2023-11-22T05:10:10;101716.97;;;-3.26;100.00
34925;BME280;21130;51.728;8.748;2023-11-22T05:12:38;101731.53;;;-3.27;100.00
34925;BME280;21130;51.728;8.748;2023-11-22T05:15:05;101728.06;;;-3.29;100.00
34925;BME280;21130;51.728;8.748;2023-11-22T05:17:32;101727.84;;;-3.26;100.00
34925;BME280;21130;51.728;8.748;2023-11-22T05:19:58;101728.59;;;-3.23;100.00
34925;BME280;21130;51.728;8.748;2023-11-22T05:22:25;101730.06;;;-3.31;100.00
34925;BME280;21130;51.728;8.748;2023-11-22T05:24:51;101727.97;;;-3.27;100.00
34925;BME280;21130;51.728;8.748;2023-11-22T05:27:18;101720.94;;;-3.30;100.00
34925;BME280;21130;51.728;8.748;2023-11-22T05:29:46;101732.03;;;-3.33;100.00
34925;BME280;21130;51.728;8.748;2023-11-22T05:32:12;101730.66;;;-3.27;100.00
34925;BME280;21130;51.728;8.748;2023-11-22T05:34:39;101734.34;;;-3.17;100.00
34925;BME280;21130;51.728;8.748;2023-11-22T05:37:05;101744.34;;;-3.29;100.00
34925;BME280;21130;51.728;8.748;2023-11-22T05:39:32;101762.88;;;-3.34;100.00
34925;BME280;21130;51.728;8.748;2023-11-22T05:41:58;101766.84;;;-3.38;100.00
34925;BME280;21130;51.728;8.748;2023-11-22T05:44:26;101772.88;;;-3.34;100.00
34925;BME280;21130;51.728;8.748;2023-11-22T05:46:55;101780.78;;;-3.42;100.00
34925;BME280;21130;51.728;8.748;2023-11-22T05:49:22;101780.88;;;-3.44;100.00
34925;BME280;21130;51.728;8.748;2023-11-22T05:51:48;101779.66;;;-3.40;100.00
34925;BME280;21130;51.728;8.748;2023-11-22T05:54:15;101779.06;;;-3.43;100.00
34925;BME280;21130;51.728;8.748;2023-11-22T05:56:43;101768.06;;;-3.42;100.00
34925;BME280;21130;51.728;8.748;2023-11-22T05:59:09;101766.06;;;-3.29;100.00
34925;BME280;21130;51.728;8.748;2023-11-22T06:01:36;101769.28;;;-3.35;100.00
34925;BME280;21130;51.728;8.748;2023-11-22T06:04:04;101769.66;;;-3.39;100.00
34925;BME280;21130;51.728;8.748;2023-11-22T06:06:30;101770.03;;;-3.44;100.00
34925;BME280;21130;51.728;8.748;2023-11-22T06:08:57;101769.31;;;-3.46;100.00
34925;BME280;21130;51.728;8.748;2023-11-22T06:11:23;101773.00;;;-3.47;100.00
34925;BME280;21130;51.728;8.748;2023-11-22T06:13:50;101771.50;;;-3.51;100.00
34925;BME280;21130;51.728;8.748;2023-11-22T06:16:17;101779.03;;;-3.55;100.00
34925;BME280;21130;51.728;8.748;2023-11-22T06:18:43;101787.28;;;-3.56;100.00
34925;BME280;21130;51.728;8.748;2023-11-22T06:21:12;101792.22;;;-3.61;100.00
34925;BME280;21130;51.728;8.748;2023-11-22T06:23:38;101796.16;;;-3.65;100.00
34925;BME280;21130;51.728;8.748;2023-11-22T06:26:05;101794.56;;;-3.68;100.00
34925;BME280;21130;51.728;8.748;2023-11-22T06:28:32;101789.38;;;-3.71;100.00
34925;BME280;21130;51.728;8.748;2023-11-22T06:31:00;101802.06;;;-3.72;100.00
34925;BME280;21130;51.728;8.748;2023-11-22T06:33:26;101805.88;;;-3.74;100.00
34925;BME280;21130;51.728;8.748;2023-11-22T06:35:52;101802.31;;;-3.75;100.00
34925;BME280;21130;51.728;8.748;2023-11-22T06:38:20;101800.34;;;-3.73;100.00
34925;BME280;21130;51.728;8.748;2023-11-22T06:40:47;101795.16;;;-3.76;100.00
34925;BME280;21130;51.728;8.748;2023-11-22T06:43:13;101797.88;;;-3.76;100.00
34925;BME280;21130;51.728;8.748;2023-11-22T06:45:39;101790.72;;;-3.77;100.00
34925;BME280;21130;51.728;8.748;2023-11-22T06:48:07;101789.75;;;-3.76;100.00
34925;BME280;21130;51.728;8.748;2023-11-22T06:50:33;101778.00;;;-3.76;100.00
34925;BME280;21130;51.728;8.748;2023-11-22T06:53:00;101771.63;;;-3.75;100.00
34925;BME280;21130;51.728;8.748;2023-11-22T06:55:30;101765.19;;;-3.74;100.00
34925;BME280;21130;51.728;8.748;2023-11-22T06:57:58;101775.94;;;-3.73;100.00
34925;BME280;21130;51.728;8.748;2023-11-22T07:00:24;101765.94;;;-3.72;100.00
34925;BME280;21130;51.728;8.748;2023-11-22T07:02:52;101764.81;;;-3.70;100.00
34925;BME280;21130;51.728;8.748;2023-11-22T07:05:19;101767.53;;;-3.70;100.00
34925;BME280;21130;51.728;8.748;2023-11-22T07:07:45;101753.00;;;-3.68;100.00
34925;BME280;21130;51.728;8.748;2023-11-22T07:10:13;101769.03;;;-3.65;100.00
34925;BME280;21130;51.728;8.748;2023-11-22T07:12:42;101761.66;;;-3.63;100.00
34925;BME280;21130;51.728;8.748;2023-11-22T07:15:09;101757.56;;;-3.58;100.00
34925;BME280;21130;51.728;8.748;2023-11-22T07:17:36;101754.59;;;-3.55;100.00
34925;BME280;21130;51.728;8.748;2023-11-22T07:20:05;101754.50;;;-3.53;100.00
34925;BME280;21130;51.728;8.748;2023-11-22T07:22:34;101756.97;;;-3.50;100.00
34925;BME280;21130;51.728;8.748;2023-11-22T07:25:01;101764.50;;;-3.42;100.00
34925;BME280;21130;51.728;8.748;2023-11-22T07:27:28;101775.72;;;-3.36;100.00
34925;BME280;21130;51.728;8.748;2023-11-22T07:29:57;101768.78;;;-3.29;100.00
34925;BME280;21130;51.728;8.748;2023-11-22T07:32:23;101772.75;;;-3.21;100.00
34925;BME280;21130;51.728;8.748;2023-11-22T07:34:50;101773.72;;;-3.11;100.00
34925;BME280;21130;51.728;8.748;2023-11-22T07:37:21;101783.47;;;-2.97;100.00
34925;BME280;21130;51.728;8.748;2023-11-22T07:39:47;101776.19;;;-2.86;100.00
34925;BME280;21130;51.728;8.748;2023-11-22T07:42:15;101782.41;;;-2.63;100.00
34925;BME280;21130;51.728;8.748;2023-11-22T07:44:41;101783.22;;;-2.51;100.00
34925;BME280;21130;51.728;8.748;2023-11-22T07:47:09;101790.34;;;-2.39;100.00
34925;BME280;21130;51.728;8.748;2023-11-22T07:49:38;101783.69;;;-2.34;100.00
34925;BME280;21130;51.728;8.748;2023-11-22T07:52:34;101782.03;;;-2.26;100.00
34925;BME280;21130;51.728;8.748;2023-11-22T07:55:07;101793.13;;;-2.18;100.00
34925;BME280;21130;51.728;8.748;2023-11-22T07:57:35;101787.66;;;-1.85;100.00
34925;BME280;21130;51.728;8.748;2023-11-22T08:00:02;101799.53;;;-1.86;100.00
34925;BME280;21130;51.728;8.748;2023-11-22T08:02:33;101784.78;;;-1.84;100.00
34925;BME280;21130;51.728;8.748;2023-11-22T08:05:00;101801.94;;;-1.72;100.00
34925;BME280;21130;51.728;8.748;2023-11-22T08:07:29;101808.75;;;-1.57;100.00
34925;BME280;21130;51.728;8.748;2023-11-22T08:09:58;101820.44;;;-1.14;100.00
34925;BME280;21130;51.728;8.748;2023-11-22T08:12:34;101831.94;;;-0.80;100.00
34925;BME280;21130;51.728;8.748;2023-11-22T08:15:00;101825.44;;;-0.29;100.00
34925;BME280;21130;51.728;8.748;2023-11-22T08:17:28;101832.34;;;0.14;100.00
34925;BME280;21130;51.728;8.748;2023-11-22T08:19:59;101831.72;;;0.59;100.00
34925;BME280;21130;51.728;8.748;2023-11-22T08:22:26;101829.34;;;1.21;100.00
34925;BME280;21130;51.728;8.748;2023-11-22T08:24:54;101824.63;;;1.87;100.00
34925;BME280;21130;51.728;8.748;2023-11-22T08:27:22;101827.09;;;2.52;100.00
34925;BME280;21130;51.728;8.748;2023-11-22T08:29:49;101817.03;;;3.13;100.00
34925;BME280;21130;51.728;8.748;2023-11-22T08:32:15;101826.41;;;3.95;100.00
34925;BME280;21130;51.728;8.748;2023-11-22T08:34:43;101816.78;;;3.99;100.00
34925;BME280;21130;51.728;8.748;2023-11-22T08:37:12;101806.16;;;4.21;100.00
34925;BME280;21130;51.728;8.748;2023-11-22T08:39:38;101806.00;;;4.22;100.00
34925;BME280;21130;51.728;8.748;2023-11-22T08:42:05;101778.56;;;4.94;100.00
34925;BME280;21130;51.728;8.748;2023-11-22T08:44:34;101771.22;;;5.26;100.00
34925;BME280;21130;51.728;8.748;2023-11-22T08:47:01;101775.09;;;5.71;100.00
34925;BME280;21130;51.728;8.748;2023-11-22T08:49:28;101776.69;;;5.97;100.00
34925;BME280;21130;51.728;8.748;2023-11-22T08:51:56;101788.38;;;5.99;100.00
34925;BME280;21130;51.728;8.748;2023-11-22T08:54:25;101792.75;;;5.23;100.00
34925;BME280;21130;51.728;8.748;2023-11-22T08:56:53;101801.69;;;5.16;100.00
34925;BME280;21130;51.728;8.748;2023-11-22T08:59:22;101797.84;;;5.42;100.00
34925;BME280;21130;51.728;8.748;2023-11-22T09:01:49;101794.03;;;5.74;100.00
34925;BME280;21130;51.728;8.748;2023-11-22T09:04:15;101805.13;;;5.97;100.00
34925;BME280;21130;51.728;8.748;2023-11-22T09:06:42;101806.94;;;5.74;100.00
34925;BME280;21130;51.728;8.748;2023-11-22T09:09:08;101809.53;;;5.75;100.00
34925;BME280;21130;51.728;8.748;2023-11-22T09:11:41;101814.13;;;5.83;100.00
34925;BME280;21130;51.728;8.748;2023-11-22T09:14:08;101814.34;;;5.73;100.00
34925;BME280;21130;51.728;8.748;2023-11-22T09:16:36;101824.81;;;5.47;100.00
34925;BME280;21130;51.728;8.748;2023-11-22T09:19:02;101828.19;;;5.17;100.00
34925;BME280;21130;51.728;8.748;2023-11-22T09:21:29;101824.97;;;5.06;100.00
34925;BME280;21130;51.728;8.748;2023-11-22T09:23:55;101821.97;;;4.60;100.00
34925;BME280;21130;51.728;8.748;2023-11-22T09:26:27;101808.41;;;4.42;100.00
34925;BME280;21130;51.728;8.748;2023-11-22T09:28:56;101798.06;;;4.44;100.00
34925;BME280;21130;51.728;8.748;2023-11-22T09:31:22;101803.88;;;4.82;100.00
34925;BME280;21130;51.728;8.748;2023-11-22T09:33:49;101808.41;;;5.22;100.00
34925;BME280;21130;51.728;8.748;2023-11-22T09:36:15;101816.38;;;5.01;100.00
34925;BME280;21130;51.728;8.748;2023-11-22T09:38:43;101808.75;;;5.19;100.00
34925;BME280;21130;51.728;8.748;2023-11-22T09:41:10;101818.25;;;5.08;100.00
34925;BME280;21130;51.728;8.748;2023-11-22T09:43:37;101805.97;;;5.27;100.00
34925;BME280;21130;51.728;8.748;2023-11-22T09:46:06;101799.78;;;5.65;100.00
34925;BME280;21130;51.728;8.748;2023-11-22T09:48:36;101803.03;;;5.99;100.00
34925;BME280;21130;51.728;8.748;2023-11-22T09:51:09;101793.56;;;6.02;100.00
34925;BME280;21130;51.728;8.748;2023-11-22T09:53:47;101794.28;;;5.25;100.00
34925;BME280;21130;51.728;8.748;2023-11-22T09:56:19;101789.94;;;4.83;100.00
34925;BME280;21130;51.728;8.748;2023-11-22T09:58:49;101794.75;;;4.89;100.00
34925;BME280;21130;51.728;8.748;2023-11-22T10:01:21;101800.25;;;4.89;100.00
34925;BME280;21130;51.728;8.748;2023-11-22T10:03:48;101815.41;;;4.77;100.00
34925;BME280;21130;51.728;8.748;2023-11-22T10:06:14;101817.78;;;4.88;100.00
34925;BME280;21130;51.728;8.748;2023-11-22T10:08:43;101795.84;;;4.55;100.00
34925;BME280;21130;51.728;8.748;2023-11-22T10:11:14;101808.22;;;4.60;100.00
34925;BME280;21130;51.728;8.748;2023-11-22T10:13:41;101808.22;;;4.27;100.00
34925;BME280;21130;51.728;8.748;2023-11-22T10:16:13;101798.94;;;4.44;100.00
34925;BME280;21130;51.728;8.748;2023-11-22T10:18:43;101801.16;;;4.49;100.00
34925;BME280;21130;51.728;8.748;2023-11-22T10:21:22;101812.88;;;4.35;100.00
34925;BME280;21130;51.728;8.748;2023-11-22T10:23:49;101797.88;;;3.96;100.00
34925;BME280;21130;51.728;8.748;2023-11-22T10:26:17;101798.00;;;3.62;100.00
34925;BME280;21130;51.728;8.748;2023-11-22T10:28:43;101794.13;;;3.89;100.00
34925;BME280;21130;51.728;8.748;2023-11-22T10:31:10;101779.38;;;4.15;100.00
34925;BME280;21130;51.728;8.748;2023-11-22T10:33:39;101797.91;;;4.21;100.00
34925;BME280;21130;51.728;8.748;2023-11-22T10:36:09;101798.56;;;3.98;100.00
34925;BME280;21130;51.728;8.748;2023-11-22T10:38:37;101791.03;;;4.00;100.00
34925;BME280;21130;51.728;8.748;2023-11-22T10:41:04;101797.56;;;4.07;100.00
34925;BME280;21130;51.728;8.748;2023-11-22T10:43:31;101795.16;;;4.45;100.00
34925;BME280;21130;51.728;8.748;2023-11-22T10:46:01;101805.78;;;4.73;100.00
34925;BME280;21130;51.728;8.748;2023-11-22T10:48:28;101800.59;;;4.86;100.00
34925;BME280;21130;51.728;8.748;2023-11-22T10:50:57;101797.06;;;4.04;100.00
34925;BME280;21130;51.728;8.748;2023-11-22T10:53:33;101791.53;;;4.53;100.00
34925;BME280;21130;51.728;8.748;2023-11-22T10:56:05;101807.38;;;4.59;100.00
34925;BME280;21130;51.728;8.748;2023-11-22T10:58:47;101797.53;;;4.73;100.00
34925;BME280;21130;51.728;8.748;2023-11-22T11:01:15;101788.63;;;4.54;100.00
34925;BME280;21130;51.728;8.748;2023-11-22T11:03:56;101791.53;;;4.53;100.00
34925;BME280;21130;51.728;8.748;2023-11-22T11:06:31;101784.84;;;3.98;100.00
34925;BME280;21130;51.728;8.748;2023-11-22T11:09:02;101787.78;;;4.21;100.00
34925;BME280;21130;51.728;8.748;2023-11-22T11:11:31;101788.09;;;3.69;100.00
34925;BME280;21130;51.728;8.748;2023-11-22T11:13:59;101779.19;;;4.08;100.00
34925;BME280;21130;51.728;8.748;2023-11-22T11:16:26;101772.84;;;4.40;100.00
34925;BME280;21130;51.728;8.748;2023-11-22T11:18:53;101770.72;;;4.59;100.00
34925;BME280;21130;51.728;8.748;2023-11-22T11:21:20;101782.25;;;4.62;100.00
34925;BME280;21130;51.728;8.748;2023-11-22T11:23:47;101776.78;;;4.46;100.00
34925;BME280;21130;51.728;8.748;2023-11-22T11:26:32;101765.22;;;4.59;100.00
34925;BME280;21130;51.728;8.748;2023-11-22T11:28:59;101764.56;;;4.57;100.00
34925;BME280;21130;51.728;8.748;2023-11-22T11:31:31;101774.34;;;4.67;100.00
34925;BME280;21130;51.728;8.748;2023-11-22T11:34:00;101779.88;;;4.59;100.00
34925;BME280;21130;51.728;8.748;2023-11-22T11:36:29;101775.09;;;4.37;100.00
34925;BME280;21130;51.728;8.748;2023-11-22T11:38:58;101758.22;;;4.48;100.00
34925;BME280;21130;51.728;8.748;2023-11-22T11:41:27;101768.72;;;4.44;100.00
34925;BME280;21130;51.728;8.748;2023-11-22T11:43:56;101778.13;;;4.74;100.00
34925;BME280;21130;51.728;8.748;2023-11-22T11:46:22;101762.28;;;4.68;100.00
34925;BME280;21130;51.728;8.748;2023-11-22T11:48:51;101752.53;;;4.58;100.00
34925;BME280;21130;51.728;8.748;2023-11-22T11:51:19;101750.44;;;4.68;100.00
34925;BME280;21130;51.728;8.748;2023-11-22T11:53:46;101746.22;;;4.96;100.00
34925;BME280;21130;51.728;8.748;2023-11-22T11:56:14;101744.50;;;4.95;100.00
34925;BME280;21130;51.728;8.748;2023-11-22T11:58:41;101744.78;;;5.17;100.00
34925;BME280;21130;51.728;8.748;2023-11-22T12:01:11;101746.13;;;5.21;100.00
34925;BME280;21130;51.728;8.748;2023-11-22T12:03:38;101740.22;;;4.93;100.00
34925;BME280;21130;51.728;8.748;2023-11-22T12:06:05;101732.63;;;5.03;100.00
34925;BME280;21130;51.728;8.748;2023-11-22T12:08:32;101718.16;;;5.40;100.00
34925;BME280;21130;51.728;8.748;2023-11-22T12:11:02;101710.94;;;5.39;100.00
34925;BME280;21130;51.728;8.748;2023-11-22T12:13:29;101697.75;;;5.58;100.00
34925;BME280;21130;51.728;8.748;2023-11-22T12:15:57;101682.06;;;5.35;100.00
34925;BME280;21130;51.728;8.748;2023-11-22T12:18:25;101663.72;;;5.51;100.00
34925;BME280;21130;51.728;8.748;2023-11-22T12:20:55;101651.00;;;5.50;100.00
34925;BME280;21130;51.728;8.748;2023-11-22T12:23:23;101645.00;;;5.84;100.00
34925;BME280;21130;51.728;8.748;2023-11-22T12:25:54;101635.69;;;5.24;99.41
34925;BME280;21130;51.728;8.748;2023-11-22T12:28:23;101625.91;;;5.68;99.33
34925;BME280;21130;51.728;8.748;2023-11-22T12:30:50;101624.00;;;5.68;98.37
34925;BME280;21130;51.728;8.748;2023-11-22T12:33:17;101622.28;;;5.21;100.00
34925;BME280;21130;51.728;8.748;2023-11-22T12:35:46;101619.34;;;5.00;100.00
34925;BME280;21130;51.728;8.748;2023-11-22T12:38:14;101607.31;;;4.61;100.00
34925;BME280;21130;51.728;8.748;2023-11-22T12:40:44;101612.47;;;4.56;100.00
34925;BME280;21130;51.728;8.748;2023-11-22T12:43:12;101615.44;;;4.46;100.00
34925;BME280;21130;51.728;8.748;2023-11-22T12:45:40;101621.50;;;4.42;100.00
34925;BME280;21130;51.728;8.748;2023-11-22T12:48:20;101615.25;;;3.92;100.00
34925;BME280;21130;51.728;8.748;2023-11-22T12:50:47;101606.34;;;3.82;100.00